This is the latest recevied weather packets stored in our database for station/object OE-11099. If no packets are shown the sender has not sent any weather packets the latest 10 day(s).
| Time | Temp. | Humidity | Pressure | Rain* | Wind** | Luminosity | Snow |
|---|---|---|---|---|---|---|---|
| 1787898306 | 26.11° C | 42% | 1009.2 hPa | 0 mm | - | 20 W/m² | - |
| 1787897478 | 26.67° C | 42% | 1008.9 hPa | 0 mm | - | 126 W/m² | - |
| 1787897105 | 26.11° C | 45% | 1009 hPa | 0 mm | - | 113 W/m² | - |
| 1787896505 | 25.56° C | 46% | 1009.3 hPa | 0 mm | - | 80 W/m² | - |
| 1787895678 | 25.56° C | 44% | 1009.6 hPa | 0 mm | - | 60 W/m² | - |
| 1787895306 | 26.11° C | 41% | 1009.4 hPa | 0 mm | - | 33 W/m² | - |
| 1787894706 | 25° C | 50% | 1009.4 hPa | 0 mm | - | 13 W/m² | - |
| 1787893879 | 25.56° C | 43% | 1009.3 hPa | 0 mm | - | 7 W/m² | - |
| 1787893506 | 24.44° C | 49% | 1009.5 hPa | 0 mm | - | 7 W/m² | - |
| 1787892906 | 25.56° C | 43% | 1009.3 hPa | 0 mm | - | 0 W/m² | - |
| 1787892078 | 26.67° C | 40% | 1009.1 hPa | 0 mm | - | 0 W/m² | - |
| 1787891705 | 26.67° C | 39% | 1009.2 hPa | 0 mm | - | 0 W/m² | - |
| 1787891106 | 27.22° C | 39% | 1009.2 hPa | 0 mm | - | 0 W/m² | - |
| 1787890279 | 27.78° C | 36% | 1008.8 hPa | 0 mm | - | 0 W/m² | - |
| 1787889905 | 27.78° C | 37% | 1008.9 hPa | 0 mm | - | 0 W/m² | - |
| 1787889306 | 28.33° C | 34% | 1008.6 hPa | 0 mm | - | 0 W/m² | - |
| 1787888705 | 28.33° C | 35% | 1008.8 hPa | 0 mm | - | 0 W/m² | - |
| 1787888105 | 27.22° C | 40% | 1009 hPa | 0 mm | - | 0 W/m² | - |
| 1787887505 | 27.78° C | 38% | 1008.9 hPa | 0 mm | - | 0 W/m² | - |
| 1787886678 | 27.22° C | 39% | 1009.3 hPa | 0 mm | - | 0 W/m² | - |
| 1787886305 | 25.56° C | 45% | 1009.9 hPa | 0 mm | - | 0 W/m² | - |
| 1787885706 | 26.11° C | 44% | 1010 hPa | 0 mm | - | 0 W/m² | - |
| 1787884879 | 27.22° C | 40% | 1009.8 hPa | 0 mm | - | 0 W/m² | - |
| 1787884506 | 27.78° C | 37% | 1009.6 hPa | 0 mm | - | 0 W/m² | - |
| 1787883906 | 28.33° C | 36% | 1009.3 hPa | 0 mm | - | 0 W/m² | - |
* Rain latest hour (hover to see other rain measurements)
** Current wind speed in m/s (hover to see current wind gust speed)